Prosser, Nebraska
Current Conditions -  °F | °C
As of 9:53 PM on Thursday 25 Dec 2014 (Local Time) from KHSI Reporting Station
Clear Clear  
Wind Chill: -7°   Ceiling: Unl
Heat Index: -1°   Visibility: 10mi
Dew Point: -3°   Wind: 16mph
Humidity: 85%   Direction: 360°N
Pressure: 29.71"   Gusts: NA
Location:  40.8074°N, 98.6117°W
Report Text: KHSI 260353Z AUTO 36014KT 10SM CLR M01/M03 A2971 RMK AO2 SLP078 T10111033
Loading
Personal Weather Stations






























Interactive Weather Map New forecast layout! Learn more

10-Day Weather Forecast

Advertisements
Track Severe Weather on mobile